Canoga Park, CA (91303)

1:30 PM PDT on October 01, 2014 (GMT -0700)
Canoga Park CA | Change Station
CLOSE
Current Station
Personal Weather Station
Location: Canoga Park, CA
Elevation: 833 ft
Nearby Weather Stations

Elev 833 ft 34.21 °N, 118.59 °W | Updated 3 minutes ago

Clear
Clear
86.9 °F
Feels Like 85 °F
N
2.0
Wind Variable Wind from SSE
Gusts 4.0 mph

Today
High -- | Low -- °F
--% Chance of Precip.
Yesterday
High -- | Low -- °F
Precip. -- in
6:49 AM 6:38 PM
Waxing Crescent, 51% visible
Pressure 29.77 in
Visibility 10.0 miles
Clouds Clear
Heat Index 85 °F
Dew Point 55 °F
Humidity 34%
Rainfall 0.00 in
Snow Depth 0 in , 0 in , 0 in
UV 8 out of 12
Pollen 5.50 out of 12
Ozone Good
PM2.5 Moderate
Flu Activity Not available.
METAR KVNY 011951Z VRB06KT 10SM CLR 29/11 A2979 RMK AO2 SLP079 T02890106 $

More Conditions Fewer Conditions

Pressure 29.77 in
Visibility 10.0 miles
Clouds Clear
Heat Index 85 °F
Dew Point 55 °F
Humidity 34%
Rainfall 0.00 in
Snow Depth 0 in , 0 in , 0 in
UV 8 out of 12
Pollen 5.50 out of 12
Ozone Good
PM2.5 Moderate
Flu Activity Not available.
METAR KVNY 011951Z VRB06KT 10SM CLR 29/11 A2979 RMK AO2 SLP079 T02890106 $

More Conditions Fewer Conditions

10-Day Weather Forecast

Almanac

Astronomy

Oct. 01, 2014 Rise Set
Actual Time 6:49 AM PDT 6:38 PM PDT
Civil Twilight 6:23 AM PDT 7:03 PM PDT
Nautical Twilight 5:54 AM PDT 7:32 PM PDT
Astronomical Twilight 5:25 AM PDT 8:01 PM PDT
Moon 1:43 PM PDT No Moon Set
Length of Visible Light 12h 39m
Length of Day
11h 49m
Tomorrow will be 2m 6s shorter.
Waxing Crescent, 51% of the Moon is Illuminated
Today
Waxing Crescent
Oct 8
Full
Oct 15
Last Quarter
Oct 23
New
Oct 30
First Quarter

Today's Extremes

State Highs State Lows

Community

WunderPhotos

Upload Photos

1,758,037 photos uploaded!

WunderBlogs® & News

By Dr. Jeff Masters
Director of Meteorology, Weather Underground
By Kari Strenfel
Meteorologist, Weather Underground
By Christopher C. Burt
Weather Historian, Weather Underground
October 1, 2014
October 1, 2014
October 1, 2014

Nearby

Air Quality

  Air Quality AQ Index Pollutant
Yesterday Moderate
OZONE
Yesterday Moderate
PM2.5
Current Moderate
PM2.5
Current Good
OZONE
Thursday Moderate
PM10
Thursday Moderate
OZONE
Thursday Good
CO
Thursday Good
NO2

Snow Depth

Station Depth Elevation
Spratt Creek 0 in 6200 ft
Fallen Leaf 0 in 6300 ft
Leavitt Meadows 0 in 7200 ft
Sonora Pass 0 in 8800 ft
Rubicon #2 1 in 7500 ft

Earthquake Activity

City Distance Mag. Time & Date
Shandon, California 147 miles 2.9 5:34 PM PDT
2014-09-30
Avalon, California 74 miles 2.6 1:28 PM PDT
2014-09-30
Minimum magnitude displayed is 2.5.

Coastal Water Temperatures

Place Temperature
Santa Monica Pier 70.0 °F
Los Angeles, CA 68.0 °F
La Jolla, CA 72.0 °F

Nearby Weather Stations